Time;durP1;ratioP1;P1;durP2;ratioP2;P2;SDS_P1;SDS_P2;PMS_P1;PMS_P2;Temp;Humidity;BMP_temperature;BMP_pressure;BME280_temperature;BME280_humidity;BME280_pressure;Samples;Min_cycle;Max_cycle;Signal;HPM_P1;HPM_P2
2021/03/27 00:02:04;;;;;;;69.97;39.88;;;;;;;7.28;60.54;101002.41;1782896;80;21033;-54
2021/03/27 00:04:48;;;;;;;48.58;33.18;;;;;;;7.28;60.45;101002.41;1782595;80;21614;-54
2021/03/27 00:07:23;;;;;;;51.53;31.57;;;;;;;7.28;60.44;101000.50;1782596;80;21057;-54
2021/03/27 00:10:22;;;;;;;41.50;27.93;;;;;;;7.28;60.42;100999.13;1782337;80;21145;-53
2021/03/27 00:13:40;;;;;;;48.87;32.05;;;;;;;7.30;60.41;101001.62;1728217;82;21049;-53
2021/03/27 00:16:56;;;;;;;46.92;28.70;;;;;;;7.39;60.39;101004.31;1858748;76;22774;-52
2021/03/27 00:19:51;;;;;;;46.05;28.70;;;;;;;7.35;60.34;100996.28;1746092;79;21007;-53
2021/03/27 00:22:33;;;;;;;40.88;28.10;;;;;;;7.37;60.27;100999.09;1787755;78;21195;-53
2021/03/27 00:25:31;;;;;;;40.48;28.02;;;;;;;7.37;60.32;100994.98;1800538;78;20999;-53
2021/03/27 00:28:13;;;;;;;41.02;27.67;;;;;;;7.35;60.32;101001.20;1787342;78;21538;-54
2021/03/27 00:31:09;;;;;;;39.88;27.90;;;;;;;7.34;60.39;100998.17;1792530;78;20999;-54
2021/03/27 00:33:59;;;;;;;38.95;26.33;;;;;;;7.34;60.38;100999.53;1788948;78;21379;-52
2021/03/27 00:36:47;;;;;;;43.10;28.25;;;;;;;7.37;60.37;100998.23;1787901;78;21730;-52
2021/03/27 00:39:28;;;;;;;38.95;25.82;;;;;;;7.37;60.45;100995.50;1772604;79;21050;-53
2021/03/27 00:42:18;;;;;;;42.70;26.33;;;;;;;7.44;60.46;100991.59;1916806;73;22766;-53
2021/03/27 00:44:54;;;;;;;40.98;27.67;;;;;;;7.38;60.42;100995.80;1884424;76;21016;-53
2021/03/27 00:47:28;;;;;;;40.12;26.70;;;;;;;7.39;60.42;100997.48;1884567;76;22153;-53
2021/03/27 00:50:07;;;;;;;36.73;25.62;;;;;;;7.39;60.35;100996.11;1884646;76;21054;-53
2021/03/27 00:52:40;;;;;;;38.95;26.75;;;;;;;7.37;60.51;100994.13;1883947;76;21043;-53
2021/03/27 00:55:17;;;;;;;38.02;26.65;;;;;;;7.35;60.64;100996.28;1883015;76;21031;-53
2021/03/27 00:57:57;;;;;;;38.05;27.40;;;;;;;7.30;60.65;100994.25;1884387;76;21617;-53
2021/03/27 01:00:36;;;;;;;43.58;27.10;;;;;;;7.30;60.80;100998.34;1884301;76;20968;-52
2021/03/27 01:03:43;;;;;;;42.05;29.02;;;;;;;7.31;60.60;100997.83;1875593;76;21028;-52
2021/03/27 01:06:49;;;;;;;41.28;27.13;;;;;;;7.32;60.57;100995.41;1884689;76;21008;-52
2021/03/27 01:10:00;;;;;;;40.50;28.65;;;;;;;7.31;60.60;101001.38;1881538;76;20973;-53
2021/03/27 01:12:52;;;;;;;40.65;27.52;;;;;;;7.30;60.51;101000.26;1884154;76;21000;-53
2021/03/27 01:18:20;;;;;;;36.53;25.95;;;;;;;7.34;60.70;101001.45;1761704;79;22831;-53
2021/03/27 01:20:53;;;;;;;38.28;28.07;;;;;;;7.26;60.72;101002.10;1717345;83;21002;-54
2021/03/27 01:23:25;;;;;;;42.58;29.02;;;;;;;7.24;60.77;101003.41;1717248;83;21154;-52
2021/03/27 01:26:00;;;;;;;38.65;27.35;;;;;;;7.21;60.86;101006.06;1717380;83;21089;-52
2021/03/27 01:28:43;;;;;;;44.23;27.32;;;;;;;7.19;61.02;101001.94;1717391;83;21435;-52
2021/03/27 01:31:21;;;;;;;38.58;27.40;;;;;;;7.15;61.16;101007.02;1717191;83;21062;-52
2021/03/27 01:34:06;;;;;;;39.60;27.82;;;;;;;7.12;61.17;101003.95;1717425;83;21069;-52
2021/03/27 01:36:56;;;;;;;37.45;26.90;;;;;;;7.05;61.26;101007.60;1717338;83;21264;-54
2021/03/27 01:39:33;;;;;;;41.92;26.75;;;;;;;7.02;61.29;101001.80;1717668;83;21628;-53
2021/03/27 01:42:23;;;;;;;40.25;28.42;;;;;;;6.98;61.33;101000.59;1715198;83;21065;-53
2021/03/27 01:45:20;;;;;;;36.68;26.60;;;;;;;6.94;61.52;101007.05;1717019;83;21073;-53
2021/03/27 01:48:29;;;;;;;36.50;26.45;;;;;;;6.91;61.53;100997.42;1717323;83;21212;-53
2021/03/27 01:51:22;;;;;;;37.35;28.02;;;;;;;6.90;61.53;101001.75;1710273;83;21183;-53
2021/03/27 01:54:17;;;;;;;36.28;26.82;;;;;;;6.87;61.58;100997.62;1716836;83;21096;-52
2021/03/27 01:56:56;;;;;;;40.43;28.02;;;;;;;6.85;61.56;101001.64;1684614;85;21100;-55
2021/03/27 01:59:37;;;;;;;37.53;26.77;;;;;;;6.83;61.72;101001.88;1685434;84;21005;-54
2021/03/27 02:02:49;;;;;;;35.68;26.52;;;;;;;6.83;61.76;101008.70;1678338;85;21073;-53
2021/03/27 02:05:33;;;;;;;40.98;25.72;;;;;;;6.83;62.03;101007.86;1678192;85;21210;-54
2021/03/27 02:08:50;;;;;;;37.98;26.65;;;;;;;6.78;62.14;101001.73;1678055;85;21006;-54
2021/03/27 02:11:59;;;;;;;42.15;27.75;;;;;;;6.74;62.11;101007.36;1677546;85;21062;-53
2021/03/27 02:14:42;;;;;;;36.45;25.72;;;;;;;6.74;62.18;101010.09;1677968;85;21085;-53
2021/03/27 02:17:28;;;;;;;37.33;25.17;;;;;;;6.75;62.25;101003.58;1681373;85;21027;-53
2021/03/27 02:20:46;;;;;;;36.75;24.02;;;;;;;6.83;62.17;101012.80;1845240;76;22744;-53
2021/03/27 02:23:20;;;;;;;40.95;28.47;;;;;;;6.78;62.28;101014.56;1756064;79;21607;-52
2021/03/27 02:26:22;;;;;;;34.38;24.20;;;;;;;6.76;62.31;101010.71;1815635;78;22796;-53
2021/03/27 02:29:28;;;;;;;36.28;25.43;;;;;;;6.78;62.14;101012.66;1815093;78;20986;-52
2021/03/27 02:32:17;;;;;;;34.63;24.98;;;;;;;6.75;62.20;101010.40;1811010;79;21049;-52
2021/03/27 02:35:00;;;;;;;38.55;25.08;;;;;;;6.72;62.23;101008.14;1815246;78;21572;-52
2021/03/27 02:37:59;;;;;;;37.20;25.92;;;;;;;6.72;62.19;101009.51;1815179;79;20990;-54
2021/03/27 02:40:45;;;;;;;38.80;24.87;;;;;;;6.75;62.14;101009.03;1814885;79;21190;-52
2021/03/27 02:43:19;;;;;;;43.08;26.17;;;;;;;6.77;62.02;101009.63;1815255;79;21643;-52
2021/03/27 02:46:04;;;;;;;32.42;24.77;;;;;;;6.82;61.87;101011.13;1815044;79;20978;-54
2021/03/27 02:49:23;;;;;;;35.90;26.23;;;;;;;6.83;61.83;101014.17;1815715;79;21017;-54
2021/03/27 02:52:10;;;;;;;37.93;25.60;;;;;;;6.82;61.80;101011.13;1815419;79;21002;-54
2021/03/27 02:55:19;;;;;;;31.48;24.12;;;;;;;6.88;61.80;101014.82;1845474;76;22828;-53
2021/03/27 02:58:07;;;;;;;44.18;23.42;;;;;;;6.80;61.83;101016.01;1815442;78;21584;-55
2021/03/27 03:01:11;;;;;;;39.97;26.23;;;;;;;6.81;61.91;101016.28;1815621;78;22248;-53
2021/03/27 03:04:04;;;;;;;37.08;24.67;;;;;;;6.81;61.79;101023.11;1815841;79;21545;-52
2021/03/27 03:06:56;;;;;;;36.63;24.43;;;;;;;6.82;61.91;101026.14;1815218;78;21014;-52
2021/03/27 03:10:00;;;;;;;38.28;25.85;;;;;;;6.78;61.93;101022.77;1815771;79;21021;-52
2021/03/27 03:12:42;;;;;;;38.55;26.25;;;;;;;6.74;62.05;101023.74;1814862;79;21042;-55
2021/03/27 03:15:25;;;;;;;36.60;25.43;;;;;;;6.67;62.11;101027.11;1815350;79;21183;-52
2021/03/27 03:18:11;;;;;;;36.65;24.92;;;;;;;6.67;62.13;101036.66;1804511;78;21009;-54
2021/03/27 03:21:03;;;;;;;37.08;25.25;;;;;;;6.69;62.16;101029.09;1778851;80;21406;-52
2021/03/27 03:23:40;;;;;;;38.33;25.77;;;;;;;6.67;62.24;101031.20;1783014;80;20993;-52
2021/03/27 03:26:50;;;;;;;41.85;27.77;;;;;;;6.63;62.41;101039.55;1783345;80;21052;-52
2021/03/27 03:29:44;;;;;;;45.20;28.27;;;;;;;6.60;62.51;101031.83;1783361;80;21399;-53
2021/03/27 03:33:04;;;;;;;40.48;27.93;;;;;;;6.59;62.67;101039.20;1783179;80;21010;-53
2021/03/27 03:35:53;;;;;;;46.65;30.27;;;;;;;6.62;62.61;101033.81;1782974;79;21060;-53
2021/03/27 03:38:49;;;;;;;41.63;27.70;;;;;;;6.62;62.65;101037.37;1782509;80;20994;-53
2021/03/27 03:41:43;;;;;;;45.50;29.45;;;;;;;6.62;62.64;101033.81;1783231;80;21640;-52
2021/03/27 03:44:52;;;;;;;40.70;28.38;;;;;;;6.59;62.52;101036.47;1783268;80;21191;-54
2021/03/27 03:47:49;;;;;;;40.73;27.37;;;;;;;6.58;62.53;101034.25;1718372;80;21734;-52
2021/03/27 03:50:44;;;;;;;42.17;28.40;;;;;;;6.55;62.53;101033.36;1761065;80;21828;-52
2021/03/27 03:53:38;;;;;;;40.98;28.98;;;;;;;6.50;62.72;101040.06;1782882;79;21041;-52
2021/03/27 03:56:30;;;;;;;42.43;29.72;;;;;;;6.42;62.90;101035.42;1783488;80;21065;-53
2021/03/27 03:59:05;;;;;;;44.95;29.07;;;;;;;6.36;63.03;101035.85;1783242;80;21191;-53
2021/03/27 04:02:05;;;;;;;42.58;30.00;;;;;;;6.40;63.06;101032.93;1810594;79;22699;-53
2021/03/27 04:04:43;;;;;;;41.42;29.27;;;;;;;6.32;63.16;101031.91;1774669;79;21640;-54
2021/03/27 04:07:16;;;;;;;43.58;30.65;;;;;;;6.27;63.23;101031.22;1772916;80;21338;-53
2021/03/27 04:09:52;;;;;;;43.35;29.30;;;;;;;6.17;63.36;101035.88;1773259;80;22136;-53
2021/03/27 04:12:39;;;;;;;43.48;29.75;;;;;;;6.14;63.53;101036.30;1773324;80;21038;-54
2021/03/27 04:15:33;;;;;;;45.35;30.32;;;;;;;6.15;63.60;101036.63;1772737;80;21196;-54
2021/03/27 04:18:22;;;;;;;44.35;30.40;;;;;;;6.17;63.68;101038.60;1761872;80;21034;-54
2021/03/27 04:21:31;;;;;;;41.90;29.70;;;;;;;6.23;63.66;101039.58;1742212;82;21346;-54
2021/03/27 04:24:16;;;;;;;41.10;28.40;;;;;;;6.27;63.59;101043.48;1742275;82;21050;-54
2021/03/27 04:26:58;;;;;;;40.75;28.90;;;;;;;6.33;63.40;101044.47;1723235;82;21007;-54
2021/03/27 04:29:41;;;;;;;45.15;29.05;;;;;;;6.35;63.30;101050.00;1741540;82;21444;-55
2021/03/27 04:32:50;;;;;;;42.33;29.37;;;;;;;6.36;63.24;101047.59;1742202;82;21315;-54
2021/03/27 04:35:29;;;;;;;42.05;29.30;;;;;;;6.40;63.27;101045.21;1742274;82;21011;-54
2021/03/27 04:38:10;;;;;;;41.55;28.17;;;;;;;6.45;63.07;101059.02;1742596;82;21184;-52
2021/03/27 04:40:53;;;;;;;43.25;29.60;;;;;;;6.51;62.90;101059.98;1741831;82;21062;-52
2021/03/27 04:43:29;;;;;;;44.15;28.47;;;;;;;6.57;62.87;101061.27;1742028;82;21022;-52
2021/03/27 04:46:24;;;;;;;46.95;28.70;;;;;;;6.63;62.78;101069.07;1742566;82;21148;-55
2021/03/27 04:49:07;;;;;;;54.38;29.15;;;;;;;6.71;62.71;101067.90;1742560;82;21683;-52
2021/03/27 04:51:49;;;;;;;45.30;27.48;;;;;;;6.78;62.47;101059.63;1722343;82;21018;-52
2021/03/27 04:54:59;;;;;;;45.15;26.87;;;;;;;6.83;62.23;101066.56;1738759;82;21680;-52
2021/03/27 04:58:02;;;;;;;39.92;26.95;;;;;;;6.89;62.02;101065.11;1742620;82;21034;-52
2021/03/27 05:01:23;;;;;;;36.85;26.27;;;;;;;6.98;61.94;101066.14;1731402;81;21112;-52
2021/03/27 05:04:04;;;;;;;38.10;25.17;;;;;;;7.03;61.78;101067.63;1742386;82;21210;-53
2021/03/27 05:06:42;;;;;;;40.40;27.13;;;;;;;7.12;61.37;101074.43;1746338;81;21058;-53
2021/03/27 05:09:31;;;;;;;44.85;27.32;;;;;;;7.19;61.20;101064.77;1742218;82;21070;-53
2021/03/27 05:12:14;;;;;;;40.20;25.97;;;;;;;7.28;61.15;101073.45;1742049;82;21560;-53
2021/03/27 05:15:06;;;;;;;37.35;26.93;;;;;;;7.34;60.97;101069.77;1741813;82;21002;-54
2021/03/27 05:17:51;;;;;;;41.80;27.85;;;;;;;7.38;60.42;101077.25;1740828;81;21058;-55
2021/03/27 05:20:28;;;;;;;38.30;26.60;;;;;;;7.42;60.17;101081.19;1741555;82;21054;-52
2021/03/27 05:23:08;;;;;;;36.38;26.20;;;;;;;7.44;60.10;101080.43;1741350;82;21047;-53
2021/03/27 05:26:10;;;;;;;41.77;27.42;;;;;;;7.45;59.90;101082.62;1741596;82;21661;-52
2021/03/27 05:29:10;;;;;;;44.15;28.42;;;;;;;7.46;60.03;101082.07;1742006;82;21022;-53
2021/03/27 05:31:57;;;;;;;40.83;28.25;;;;;;;7.47;60.07;101084.56;1741695;82;21315;-53
2021/03/27 05:34:50;;;;;;;46.83;28.92;;;;;;;7.46;60.07;101082.92;1741245;82;21684;-53
2021/03/27 05:37:51;;;;;;;44.50;28.45;;;;;;;7.48;60.05;101082.14;1741786;82;21680;-53
2021/03/27 05:40:49;;;;;;;43.02;27.50;;;;;;;7.50;59.90;101088.22;1741266;82;21069;-54
2021/03/27 05:43:36;;;;;;;39.25;26.97;;;;;;;7.55;59.64;101086.13;1740335;82;21014;-53
2021/03/27 05:47:01;;;;;;;41.73;28.55;;;;;;;7.59;59.47;101088.70;1741432;82;21210;-53
2021/03/27 05:50:00;;;;;;;36.50;26.02;;;;;;;7.63;59.44;101087.67;1741345;82;21078;-53
2021/03/27 05:52:53;;;;;;;53.33;27.30;;;;;;;7.67;59.34;101086.12;1741221;82;21014;-53
2021/03/27 05:55:56;;;;;;;38.10;27.32;;;;;;;7.71;59.07;101088.69;1741716;82;21049;-53
2021/03/27 05:58:58;;;;;;;38.83;26.17;;;;;;;7.76;58.92;101097.02;1741726;82;21651;-53
2021/03/27 06:01:52;;;;;;;36.53;26.07;;;;;;;7.78;58.73;101094.87;1742157;82;21140;-53
2021/03/27 06:05:09;;;;;;;40.10;27.58;;;;;;;7.82;58.63;101097.42;1742092;82;21212;-53
2021/03/27 06:08:10;;;;;;;43.40;26.23;;;;;;;7.86;58.65;101101.35;1689629;84;21045;-53
2021/03/27 06:11:25;;;;;;;38.00;26.35;;;;;;;7.91;58.33;101097.34;1689022;84;21277;-53
2021/03/27 06:14:49;;;;;;;38.45;26.42;;;;;;;7.95;58.24;101085.41;1741523;82;21026;-53
2021/03/27 06:17:33;;;;;;;39.78;26.90;;;;;;;7.98;58.09;101094.50;1746560;80;21057;-54
2021/03/27 06:20:59;;;;;;;33.40;25.97;;;;;;;8.05;58.06;101096.56;1743247;81;21660;-53
2021/03/27 06:23:54;;;;;;;42.65;29.35;;;;;;;8.23;57.79;101096.11;1845395;76;22357;-53
2021/03/27 06:26:34;;;;;;;55.88;30.65;;;;;;;8.25;57.62;101099.45;1815358;79;21013;-54
2021/03/27 06:29:40;;;;;;;44.80;27.00;;;;;;;8.34;57.23;101106.75;1815393;79;22091;-54
2021/03/27 06:32:50;;;;;;;36.63;25.30;;;;;;;8.41;57.25;101109.64;1814257;79;20998;-54
2021/03/27 06:35:46;;;;;;;41.02;27.82;;;;;;;8.54;56.88;101105.82;1815025;79;20986;-54
2021/03/27 06:38:39;;;;;;;38.65;23.90;;;;;;;8.69;56.51;101112.67;1815155;79;21030;-54
2021/03/27 06:41:33;;;;;;;34.80;24.50;;;;;;;8.82;56.19;101111.85;1815534;79;21033;-54
2021/03/27 06:44:30;;;;;;;38.80;25.50;;;;;;;8.93;55.44;101107.41;1815446;79;21393;-54
2021/03/27 06:47:15;;;;;;;31.40;23.67;;;;;;;9.04;55.19;101110.33;1815523;79;21603;-53
2021/03/27 06:50:10;;;;;;;38.10;26.35;;;;;;;9.14;55.05;101112.70;1815526;79;21041;-53
2021/03/27 06:52:58;;;;;;;39.92;27.07;;;;;;;9.29;54.59;101110.78;1815001;78;21401;-54
2021/03/27 06:55:47;;;;;;;38.88;28.98;;;;;;;9.40;54.25;101110.42;1787502;79;21037;-53
2021/03/27 06:58:37;;;;;;;42.10;27.87;;;;;;;9.49;53.95;101117.14;1815532;78;21436;-54
2021/03/27 07:01:37;;;;;;;41.50;25.85;;;;;;;9.61;53.85;101117.05;1814173;79;21073;-53
2021/03/27 07:04:38;;;;;;;39.20;27.22;;;;;;;9.72;53.35;101116.68;1815092;79;21084;-53
2021/03/27 07:07:40;;;;;;;44.42;29.92;;;;;;;9.85;53.02;101119.61;1815352;79;21660;-53
2021/03/27 07:10:40;;;;;;;49.63;29.63;;;;;;;9.96;53.18;101113.20;1815199;78;21033;-54
2021/03/27 07:13:31;;;;;;;62.15;30.12;;;;;;;10.14;53.01;101116.17;1814028;79;21198;-53
2021/03/27 07:16:26;;;;;;;46.18;30.15;;;;;;;10.24;52.18;101119.60;1814735;79;21666;-55
2021/03/27 07:19:19;;;;;;;41.63;26.55;;;;;;;10.30;52.08;101115.02;1790488;79;21034;-54
2021/03/27 07:22:18;;;;;;;40.25;27.82;;;;;;;10.42;51.74;101109.41;1782009;79;21064;-54
2021/03/27 07:25:31;;;;;;;43.35;28.35;;;;;;;10.54;51.65;101115.63;1797766;79;21044;-54
2021/03/27 07:28:33;;;;;;;41.28;25.97;;;;;;;10.66;51.23;101119.08;1797718;79;21203;-53
2021/03/27 07:31:35;;;;;;;39.55;26.27;;;;;;;10.72;50.75;101126.83;1797748;79;21056;-53
2021/03/27 07:34:37;;;;;;;54.35;28.25;;;;;;;10.76;50.40;101132.63;1797431;79;21359;-53
2021/03/27 07:37:21;;;;;;;37.10;26.12;;;;;;;10.78;50.44;101125.79;1795012;79;21437;-54
2021/03/27 07:40:13;;;;;;;43.08;29.00;;;;;;;10.86;50.33;101127.23;1796126;79;21602;-54
2021/03/27 07:42:45;;;;;;;39.73;27.02;;;;;;;10.99;49.79;101121.35;1790406;79;21322;-54
2021/03/27 07:45:38;;;;;;;46.02;29.35;;;;;;;11.06;49.64;101127.47;1796719;79;21064;-53
2021/03/27 07:48:25;;;;;;;43.15;26.85;;;;;;;11.20;49.79;101124.29;1796900;79;20997;-54
2021/03/27 07:51:26;;;;;;;42.67;29.55;;;;;;;11.38;49.55;101125.28;1797247;79;21041;-53
2021/03/27 07:54:21;;;;;;;42.43;29.60;;;;;;;11.54;48.75;101126.80;1797240;79;21662;-54
2021/03/27 07:57:16;;;;;;;43.92;28.47;;;;;;;11.68;48.63;101126.62;1797069;79;21340;-53
2021/03/27 08:00:22;;;;;;;43.83;29.07;;;;;;;11.88;48.59;101125.13;1772052;79;21036;-53
2021/03/27 08:03:30;;;;;;;38.83;26.62;;;;;;;12.09;48.13;101128.31;1796621;79;21048;-53
2021/03/27 08:06:30;;;;;;;43.08;26.75;;;;;;;12.19;46.84;101119.81;1778083;80;21033;-53
2021/03/27 08:09:13;;;;;;;41.98;27.87;;;;;;;12.21;46.69;101117.08;1778233;80;21030;-54
2021/03/27 08:12:12;;;;;;;47.50;29.35;;;;;;;12.31;46.50;101121.00;1777918;80;21269;-53
2021/03/27 08:15:15;;;;;;;41.20;29.02;;;;;;;12.49;46.37;101119.68;1777922;80;21057;-54
2021/03/27 08:17:56;;;;;;;45.75;29.98;;;;;;;12.67;45.17;101119.20;1778024;79;22098;-54
2021/03/27 08:20:48;;;;;;;40.98;27.52;;;;;;;12.76;44.66;101118.12;1778135;80;21041;-54
2021/03/27 08:23:57;;;;;;;37.67;26.77;;;;;;;12.87;44.50;101114.85;1777250;80;21595;-53
2021/03/27 08:26:43;;;;;;;37.80;27.10;;;;;;;13.05;44.41;101122.61;1782874;80;23595;-54
2021/03/27 08:30:10;;;;;;;34.30;25.32;;;;;;;13.27;44.04;101114.64;1782158;80;21714;-54
2021/03/27 08:33:13;;;;;;;39.65;24.90;;;;;;;13.48;43.98;101123.23;1782417;80;20990;-53
2021/03/27 08:36:29;;;;;;;34.20;24.52;;;;;;;13.73;43.24;101125.73;1782097;80;21167;-53
2021/03/27 08:39:43;;;;;;;41.37;25.23;;;;;;;14.00;42.44;101117.12;1782599;80;21060;-54
2021/03/27 08:43:02;;;;;;;34.48;23.65;;;;;;;14.25;41.57;101117.33;1782295;80;21348;-54
2021/03/27 08:46:01;;;;;;;41.05;21.73;;;;;;;14.45;40.76;101110.90;1781919;80;21702;-54
2021/03/27 08:49:25;;;;;;;36.68;24.05;;;;;;;14.72;39.91;101116.05;1781533;80;21057;-53
2021/03/27 08:55:30;;;;;;;42.67;23.80;;;;;;;15.48;38.95;101104.18;1813753;79;22673;-54
2021/03/27 08:58:49;;;;;;;39.42;26.45;;;;;;;15.66;38.41;101109.56;1786641;80;20994;-53
2021/03/27 09:01:48;;;;;;;32.83;23.83;;;;;;;15.84;37.70;101105.83;1786658;80;21193;-53
2021/03/27 09:05:04;;;;;;;32.50;23.07;;;;;;;16.11;37.63;101105.83;1786707;80;21659;-54
2021/03/27 09:08:00;;;;;;;37.05;23.18;;;;;;;16.36;37.04;101110.23;1786331;80;21696;-53
2021/03/27 09:10:39;;;;;;;32.60;21.90;;;;;;;16.62;37.01;101102.97;1786446;80;21663;-53
2021/03/27 09:13:21;;;;;;;36.60;23.15;;;;;;;16.83;35.62;101104.34;1771381;80;21030;-54
2021/03/27 09:16:38;;;;;;;34.95;24.20;;;;;;;16.82;35.27;101102.71;1787241;80;21674;-53
2021/03/27 09:19:48;;;;;;;33.48;23.85;;;;;;;16.85;35.53;101093.78;1758831;80;21060;-56
2021/03/27 09:23:03;;;;;;;33.38;22.95;;;;;;;17.05;34.69;101098.23;1755947;81;21081;-54
2021/03/27 09:26:19;;;;;;;33.55;23.15;;;;;;;17.23;33.59;101096.58;1755373;81;21053;-54
2021/03/27 09:29:02;;;;;;;;;;;;;;;17.36;33.27;101103.31;1757818;81;21006;-55
2021/03/27 09:32:09;;;;;;;29.77;22.22;;;;;;;17.44;33.31;101098.44;1755394;80;20213;-54
2021/03/27 09:34:55;;;;;;;40.20;26.52;;;;;;;17.59;33.47;101097.91;1754256;81;21097;-54
2021/03/27 09:38:13;;;;;;;39.23;25.25;;;;;;;17.79;32.75;101103.69;1744623;81;21065;-54
2021/03/27 09:41:07;;;;;;;34.73;24.65;;;;;;;17.85;32.90;101102.45;1743013;81;21062;-55
2021/03/27 09:44:03;;;;;;;37.50;25.85;;;;;;;18.15;32.75;101104.43;1742815;82;21078;-55
2021/03/27 09:47:06;;;;;;;41.63;23.70;;;;;;;18.39;31.79;101106.16;1742999;81;21407;-54
2021/03/27 09:50:05;;;;;;;31.02;22.80;;;;;;;18.54;31.53;101100.28;1743645;81;21002;-54
2021/03/27 09:52:41;;;;;;;41.73;26.48;;;;;;;18.72;30.85;101094.89;1743294;81;21053;-53
2021/03/27 09:55:44;;;;;;;40.85;25.02;;;;;;;18.71;30.44;101094.07;1712998;83;21114;-55
2021/03/27 09:58:48;;;;;;;36.17;25.27;;;;;;;18.73;30.62;101093.76;1740992;81;21489;-54
2021/03/27 10:01:41;;;;;;;34.63;25.25;;;;;;;18.84;30.46;101091.00;1736591;81;21166;-55
2021/03/27 10:04:50;;;;;;;35.17;24.63;;;;;;;19.02;30.26;101092.57;1737297;81;21106;-55
2021/03/27 10:10:50;;;;;;;34.33;23.32;;;;;;;19.37;29.29;101087.28;1882478;74;22896;-55
2021/03/27 10:13:46;;;;;;;36.85;23.02;;;;;;;19.27;29.23;101084.99;1846168;76;21045;-57
2021/03/27 10:16:42;;;;;;;37.73;22.77;;;;;;;19.36;29.28;101092.59;1817699;76;21589;-54
2021/03/27 10:19:34;;;;;;;32.87;25.70;;;;;;;19.66;28.95;101090.42;1863930;74;34905;-54
2021/03/27 10:22:15;;;;;;;34.23;24.70;;;;;;;19.88;28.50;101088.77;1851714;76;21029;-55
2021/03/27 10:25:00;;;;;;;28.25;22.50;;;;;;;19.94;28.42;101085.27;1837488;76;21044;-55
2021/03/27 10:27:43;;;;;;;32.40;22.10;;;;;;;19.82;28.17;101088.63;1843630;76;21074;-55
2021/03/27 10:30:44;;;;;;;30.20;20.62;;;;;;;19.84;28.23;101091.94;1848115;75;21003;-54
2021/03/27 10:33:31;;;;;;;29.15;21.40;;;;;;;20.01;28.48;101088.41;1765484;76;21595;-55
2021/03/27 10:36:28;;;;;;;36.03;26.93;;;;;;;20.25;27.99;101081.05;1845378;76;21508;-55
2021/03/27 10:39:35;;;;;;;29.32;21.93;;;;;;;20.38;27.72;101089.84;1848715;76;21211;-55
2021/03/27 10:42:44;;;;;;;28.77;19.60;;;;;;;20.54;27.40;101084.63;1804551;76;21470;-55
2021/03/27 10:45:38;;;;;;;60.10;22.20;;;;;;;20.65;26.97;101082.95;1779064;79;21291;-54
2021/03/27 10:48:15;;;;;;;29.23;21.68;;;;;;;20.62;26.82;101084.42;1781348;79;21057;-55
2021/03/27 10:51:05;;;;;;;35.48;22.50;;;;;;;20.66;26.30;101084.02;1778728;79;21627;-55
2021/03/27 10:53:59;;;;;;;32.05;22.82;;;;;;;20.81;26.00;101081.34;1779732;79;22417;-55
2021/03/27 10:57:09;;;;;;;28.75;21.30;;;;;;;20.79;26.58;101084.20;1803883;78;21014;-54
2021/03/27 11:00:11;;;;;;;39.78;20.62;;;;;;;20.77;26.13;101077.55;1800443;78;21715;-56
2021/03/27 11:03:15;;;;;;;30.65;20.72;;;;;;;20.58;26.92;101080.63;1699544;78;21273;-54
2021/03/27 11:06:15;;;;;;;43.05;33.25;;;;;;;20.53;27.02;101067.66;1788137;79;21032;-54
2021/03/27 11:09:09;;;;;;;28.38;21.30;;;;;;;20.70;26.89;101066.87;1791975;78;21356;-56
2021/03/27 11:12:36;;;;;;;32.57;20.57;;;;;;;21.01;26.59;101066.49;1796779;79;21036;-53
2021/03/27 11:15:40;;;;;;;36.42;20.45;;;;;;;21.03;26.38;101062.22;1796999;78;21079;-54
2021/03/27 11:18:46;;;;;;;40.03;21.93;;;;;;;20.69;26.55;101067.20;1752209;81;21057;-54
2021/03/27 11:21:52;;;;;;;25.15;20.52;;;;;;;20.58;26.74;101063.05;1771990;79;21116;-54
2021/03/27 11:24:46;;;;;;;28.30;20.32;;;;;;;20.84;27.01;101064.52;1781651;79;22328;-56
2021/03/27 11:27:42;;;;;;;31.00;21.85;;;;;;;21.19;26.52;101062.54;1778636;79;20983;-55
2021/03/27 11:30:38;;;;;;;37.85;20.97;;;;;;;21.32;26.63;101064.06;1772066;79;21068;-55
2021/03/27 11:33:33;;;;;;;28.60;21.40;;;;;;;21.39;26.39;101062.42;1745627;81;21084;-55
2021/03/27 11:36:18;;;;;;;46.73;20.20;;;;;;;21.61;26.38;101064.78;1746381;80;21041;-54
2021/03/27 11:39:04;;;;;;;36.23;20.68;;;;;;;21.75;26.09;101065.98;1749262;80;21622;-55
2021/03/27 11:41:49;;;;;;;30.75;20.52;;;;;;;21.81;25.70;101066.63;1708550;82;20982;-54
2021/03/27 11:45:00;;;;;;;30.55;20.50;;;;;;;21.78;25.91;101065.87;1711535;81;21069;-55
2021/03/27 11:48:02;;;;;;;30.10;20.12;;;;;;;21.65;25.77;101061.57;1764104;80;22303;-55
2021/03/27 11:51:16;;;;;;;36.68;19.00;;;;;;;21.45;25.89;101052.45;1705150;81;21018;-54
2021/03/27 11:54:24;;;;;;;;;;;;;;;21.51;26.16;101051.14;1769005;80;21366;-54
2021/03/27 11:57:13;;;;;;;34.60;19.27;;;;;;;21.87;25.75;101054.09;1747668;80;20209;-54
2021/03/27 12:03:16;;;;;;;25.37;17.95;;;;;;;21.96;25.00;101054.86;1744079;80;21049;-55
2021/03/27 12:06:06;;;;;;;27.45;18.40;;;;;;;21.90;24.59;101051.42;1749461;80;21018;-54
2021/03/27 12:08:59;;;;;;;27.52;17.62;;;;;;;22.02;24.36;101052.69;1773825;79;21957;-54
2021/03/27 12:11:54;;;;;;;26.27;16.93;;;;;;;21.97;24.62;101047.31;1753525;80;21621;-54
2021/03/27 12:14:46;;;;;;;21.75;16.65;;;;;;;21.82;24.76;101040.28;1753726;80;21074;-54
2021/03/27 12:17:51;;;;;;;25.85;16.97;;;;;;;21.80;24.85;101049.59;1755832;80;21030;-54
2021/03/27 12:20:35;;;;;;;23.67;16.35;;;;;;;21.79;24.37;101050.74;1723904;81;21128;-55
2021/03/27 12:23:33;;;;;;;30.00;17.07;;;;;;;21.77;24.67;101048.88;1757164;80;21417;-54
2021/03/27 12:26:50;;;;;;;26.45;17.50;;;;;;;21.86;24.43;101042.66;1734759;81;21647;-55
2021/03/27 12:29:23;;;;;;;31.52;17.07;;;;;;;21.99;24.23;101044.42;1746647;81;21632;-54
2021/03/27 12:32:29;;;;;;;22.55;16.02;;;;;;;22.33;23.71;101049.59;1748142;80;21204;-54
2021/03/27 12:35:14;;;;;;;23.42;17.15;;;;;;;22.60;23.66;101043.25;1771754;79;21101;-57
2021/03/27 12:38:20;;;;;;;24.02;15.95;;;;;;;22.71;22.77;101044.48;1746096;80;22193;-54
2021/03/27 12:41:07;;;;;;;27.48;17.45;;;;;;;22.64;22.88;101031.62;1746241;81;21166;-56
2021/03/27 12:43:46;;;;;;;21.12;16.00;;;;;;;22.56;22.99;101038.94;1775670;79;21234;-55
2021/03/27 12:46:45;;;;;;;35.55;16.85;;;;;;;22.35;23.06;101033.30;1774866;79;21047;-56
2021/03/27 12:49:52;;;;;;;29.15;15.53;;;;;;;22.40;23.13;101040.09;1780151;79;21634;-55
2021/03/27 12:53:01;;;;;;;23.02;14.15;;;;;;;22.45;22.89;101043.29;1769843;79;21631;-55
2021/03/27 12:56:05;;;;;;;20.92;14.50;;;;;;;22.40;22.48;101040.67;1772435;79;21058;-55
2021/03/27 12:58:56;;;;;;;18.57;13.72;;;;;;;22.41;22.41;101045.94;1770056;79;21160;-55
2021/03/27 13:05:01;;;;;;;17.40;13.53;;;;;;;21.67;23.35;101042.47;1858087;75;22390;-55
2021/03/27 13:08:13;;;;;;;24.12;14.58;;;;;;;21.82;23.28;101043.08;1789060;78;21644;-55
2021/03/27 13:11:17;;;;;;;21.70;14.10;;;;;;;22.22;23.12;101041.31;1773228;80;21050;-57
2021/03/27 13:14:36;;;;;;;24.27;14.73;;;;;;;22.48;22.83;101037.56;1767152;79;21069;-54
2021/03/27 13:17:28;;;;;;;21.02;15.30;;;;;;;22.71;22.74;101036.68;1773704;79;21051;-54
2021/03/27 13:20:13;;;;;;;32.03;16.02;;;;;;;22.82;22.35;101029.51;1773572;79;21093;-54
2021/03/27 13:23:07;;;;;;;24.90;15.55;;;;;;;22.83;22.07;101030.32;1835518;75;22690;-55
2021/03/27 13:25:56;;;;;;;26.05;14.13;;;;;;;22.79;22.41;101027.37;1807636;77;21085;-55
2021/03/27 13:28:38;;;;;;;25.82;15.23;;;;;;;22.75;22.04;101027.84;1741478;80;21384;-55
2021/03/27 13:31:26;;;;;;;28.35;15.58;;;;;;;22.50;22.30;101024.07;1762877;79;21037;-54
2021/03/27 13:34:07;;;;;;;21.57;15.25;;;;;;;22.48;22.66;101025.81;1745927;80;21035;-54
2021/03/27 13:36:51;;;;;;;27.50;14.65;;;;;;;22.59;22.29;101024.81;1741926;80;21098;-54